Brunswick Golden Isles Airport
KBQK : rendu visible

Aérodrome :











RETROUVEZ-NOUS SUR...

 
LOGIN :

S'inscrire | Disclaimer

   EN    FR    IT 

 









Légende :    VFR   VFR Marginal   IFR   IFR Intensif   IFR Très Intensif
Visi : 
Plafond : 
>= 8 km
>= 3000ft
5 à 8 km
1000 à 3000 ft
1500m à 5 km
500 à 1000 ft
800 à 1500m
200 à 500 ft
< 800m
< 200 ft
Symboles :   Orages  Brouillard  Fortes neiges  Fortes précipitations  Vent > 20 kt






- Altitude de l'aérodrome : 26 ft
- Code IATA : BQK


KBQK - Brunswick Golden Isles

DERNIER METAR :
  • 080015Z AUTO 30004KT 10SM CLR 24/23 A3005 RMK AO2 T02370231

METARs EXPIRÉS :
  • 072355Z AUTO 16007KT 10SM SCT003 SCT120 24/23 A3003 RMK AO2 LTG DSNT S P0002 T02360231 10306 20231 403270221 60027
  • 072335Z AUTO 15006KT 10SM SCT070 BKN110 24/23 A3004 RMK AO2 LTG DSNT SE P0002 T02370233
  • 072315Z AUTO 20006KT 10SM -RA SCT075 OVC110 23/23 A3007 RMK AO2 LTG DSNT E THRU S P0002 T02340230
  • 072255Z AUTO 22003KT 10SM -RA OVC110 23/23 A3010 RMK AO2 LTG DSNT E P0013 T02320228
  • 072235Z AUTO 00000KT 7SM RA OVC110 23/23 A3011 RMK AO2 LTG DSNT E AND S P0009 T02330228
  • 072215Z AUTO 22004KT 7SM TSRA BKN100 OVC120 23/23 A3012 RMK AO2 LTG DSNT N THRU S P0004
  • 072155Z AUTO 22005KT 7SM +TSRA OVC100 24/23 A3012 RMK AO2 LTG DSNT ALQDS P0009 T02370230
  • 072135Z AUTO 22006KT 7SM TSRA OVC110 24/23 A3012 RMK AO2 LTG DSNT SE THRU W P0005 T02370231

TAF N/A
FIR KZJX / Amérique du Nord



MET'MAP, la Météo Aéronautique d'un coup d'oeil ! - Copyright ORBIFLY Décembre 2007 - Disclaimer

ORBIFLY MET'MAP TEAM :

Programmation & Développement : Alexandra Zaïnal
Sur une idée originale de : Baudouin d'Aumeries
Assistance à la programmation : Marc-Olivier Méhu
Soutien technique & logistique : Manuel Goepfert

Contact : metmap@orbifly.com




SOURCES & CREDITS :

   NOAA       Earth
Advisory